Articles Comments Reads Score Date Action
Buying The Building But Leasing The Land 4 790 0 2004-02-26
Forming An LLC In AZ 3 988 0 2004-02-24
How Is Commercial Property Wholesaling? 1 622 0 2004-02-24
Acapulco, Mex Commercial Property 1 850 0 2004-02-23
Financing Question On Commercial Property 2 838 0 2004-02-09
Need Financial Ratios 2 678 0 2004-02-07
Cap Rates 8 1147 0 2004-02-05
Is Getting Zoning Changed Difficult In SoCal? 7 865 0 2004-02-23
Zoning Issue 2 933 0 2004-02-16
Residential / Office Area Zoning Question. 8 1272 0 2004-02-12
Enviromental Audit For Commercial Building 1 956 0 2004-02-09
Big Business! 2 1048 0 2004-02-24
Help Needed...What Would You Do? 11 1024 0 2004-02-23
How Much Do I Charge??? 2 782 0 2004-02-23
Storage Uses For Former Gas Station Parcel 1 815 0 2004-02-23
What's A Vacant Gas Station Good For??? 8 1132 0 2004-02-15
Need Advice Office Building Purchase 3 1269 0 2004-02-07
Self Directed IRA 12 2784 0 2004-02-06
Investing In Storage Spaces And/or Parking Spaces 10 1143 0 2004-02-05
Need Help With A Convience Store Purchase - What Would You Do?? 4 1001 0 2004-02-17
Commercial Retail Developing 1 983 0 2004-02-05
Opinion Based Forum On Lenders? 1 222 0 2004-02-29
The Same People? 3 243 0 2004-02-26
How Can I Edit An Obnoxious Reply In Legal Forum? 1 205 0 2004-02-26
WHAT IS THIS ABOUT 0 217 0 2004-02-26
I Don't Want To Get Involved So I'll Ask You Guys 8 244 0 2004-02-24
Duplicate Post 0 183 0 2004-02-23
Delete 0 188 0 2004-02-22
Davese...what Do You Make Of Him? 1 204 0 2004-02-20
I Think It's Time 0 217 0 2004-02-20
What Do You Think, Mods? 5 304 0 2004-02-20
A Board Hustler? 1 234 0 2004-02-20
Need Opinions On This Post 3 271 0 2004-02-16
THis Should Be Deleted 1 224 0 2004-02-16
Why Should This Be Deleted Or Modified? 1 220 0 2004-02-15
How Long Is A Prison Sentence? 0 201 0 2004-02-14
Blantant Advertising, Collarcityauctions 0 261 0 2004-02-13
Is This A Board Hustling? 1 252 0 2004-02-12
First Stages 3 221 0 2004-02-11
Your Opinion On This Post. 5 299 0 2004-02-10
Here's Another One, John 3 226 0 2004-02-09
Creative Martketing Idea. 4 232 0 2004-02-09
Raj Control Needed 3 232 0 2004-02-07
What Do You Moderators Think? 4 235 0 2004-02-07
Whole Thread Is An Ad 0 210 0 2004-02-06
Wrong Fourm 0 210 0 2004-02-06
Hustler 1 217 0 2004-02-06
Tough Forum To Handle. 1 271 0 2004-02-05
Advertising 2 295 0 2004-02-05
Many Ads 3 321 0 2004-02-03
Can A Small Inheritance Really Go A Long Way? 1 791 0 2004-02-29
How To Get "permission" To Work With Bank 6 894 0 2004-02-28
Auction In 10 Days 2 874 0 2004-02-28
IRS Lien 2 881 0 2004-02-27
Deficiency Judgement Taxation 1 545 0 2004-02-27
Protection 1 615 0 2004-02-27
What's Realistic On A Short Sale Deal?????? 7 952 0 2004-02-27
Money To Seller 2 746 0 2004-02-26
CBA's 1 882 0 2004-02-26
CMA's 3 743 0 2004-02-26
SS And Increasing Prom. Note F/u 7 657 0 2004-02-26
Where's My Package??!!!! 4 869 0 2004-02-26
BPO 9 1056 0 2004-02-26
Should Owner Attend Hearings 0 575 0 2004-02-25
Does Seller Have To Occupy The Property 5 733 0 2004-02-25
Short Sale Success Story 2 864 0 2004-02-25
How Do I Delay An Auction 3 862 0 2004-02-25
Negotiating With Junior Lien Holders 0 962 0 2004-02-25
What Does It Cost Bank To Foreclose? 1 925 0 2004-02-24
Short Issue, Short Question???????? 17 2102 0 2004-02-24
Looking For A Good Foundation. 4 836 0 2004-02-23
** HELP ** Stopping The Sale By Claiming Failure To Notify 3 778 0 2004-02-23
3 Quick SS Questions 1 721 0 2004-02-23
Information/Advise Please 8 951 0 2004-02-23
Advice On My First Short, Please... 4 758 0 2004-02-23
Questions On Short Sale Package 10 985 0 2004-02-22
CMAs How Much Is That Foreclosure Worth? 4 1100 0 2004-02-22
Negotiate Out Lender Request For A Listing Agreement? 3 705 0 2004-02-21
15 For 30....what Is This?? 15 1847 0 2004-02-20
Quick Response To Short Sale 3 670 0 2004-02-20
Thank You!!! 0 631 0 2004-02-20
Form 2 778 0 2004-02-19
Need Help Understanding This One 0 890 0 2004-02-19
Your Biggest "watch Out For....." 5 916 0 2004-02-19
Has Anyone Had Any Experience In Dealing With The IRS? 0 732 0 2004-02-19
Short Sale Question 7 1026 0 2004-02-19
EEEK!! Short Sale Delemna 7 788 0 2004-02-19
Short Sale Then Sign A Purchase Contract Then Flip? 3 822 0 2004-02-19
How Much Of A Discount??? 1 754 0 2004-02-18
Quality Short Sale Package 3 742 0 2004-02-18
Ch 13 Bankruptcy Short Sale 6 845 0 2004-02-18
Short Sales That Aren't Short Enough 11 1180 0 2004-02-18
Short Sale And PMI 2 807 0 2004-02-18
Short Sale From Owner Easier Than From Bank? 8 775 0 2004-02-18
BPO Questions 4 791 0 2004-02-17
What A Bank Wants To See....... 2 699 0 2004-02-17
Short Sale Committment? 2 786 0 2004-02-17
What Did I Do Wrong & How Do I Fix IT? 11 1221 0 2004-02-16
Was I Told Wrong 2 604 0 2004-02-16
Short Sale Bid Advice / Experience 1 583 0 2004-02-16
Where Are Short Sales Going? 8 885 0 2004-02-16
Short Sales On Pretty Houses 1 731 0 2004-02-16
Short Sale With Wells Fargo????? 5 883 0 2004-02-16
Does This Have Good Short-Sale Potential? 9 689 0 2004-02-16
Title Search Before Closing? 2 740 0 2004-02-16
Favorite Lenders To Short Sale With 10 1256 0 2004-02-16
Problem With Seller's Brother 13 664 0 2004-02-16
How Will This Look? 4 766 0 2004-02-15
Short Sale Question? 4 696 0 2004-02-15
Thinking Outside The Box.. 8 1203 0 2004-02-15
Recording The Deed BEFORE Closing 1 619 0 2004-02-14
How Long Does A SS Usually Take? 1 698 0 2004-02-14
Hud-1/Settlement Statement 7 1156 0 2004-02-14
How To Find Short Sale Deals 2 821 0 2004-02-14
Persistence Paid Off -Score= Countrywide-1 Seller-2 Buyer-$5000.00? 1 960 0 2004-02-13
Short Sale In 2 Weeks 4 795 0 2004-02-13
Would Someone List The Steps Of Proceeding With A Short Sale Please? 3 946 0 2004-02-13
Phone Number For Green Tree Mortgage Service 1 882 0 2004-02-12
Questions For SSP 1 642 0 2004-02-12
Condition Of House For Short Sale? 2 642 0 2004-02-12
Can I Short This? 1 843 0 2004-02-11
Short Sale Assistance Needed 6 1055 0 2004-02-11
Homecoming Financial Contact Info 0 1529 0 2004-02-11
Countrywide's Dragging Their Feet - Help! 7 1052 0 2004-02-11
Closing In A Week!! 6 880 0 2004-02-11
Looking At A Short Sale 2 701 0 2004-02-11
My First Short Sale ( Hopefully ) 2 688 0 2004-02-11
Simultaneous Closing Strategies??? 12 1168 0 2004-02-11
Ameriquest 1 896 0 2004-02-10
SSP- 10K Promissary Note??????? 2 615 0 2004-02-10
Short Sale On 2nd In Bankruptcy? 2 683 0 2004-02-10
Need Good Attorney In Chicagoland 0 685 0 2004-02-09
Basic (hopefully) Question - Sub-to & Short Sale HELP? 5 851 0 2004-02-09
What Exactly Is A Short Sale 3 789 0 2004-02-09
Short Sale With Equity 4 891 0 2004-02-09
Short Sale-quit Claim Deed? 2 826 0 2004-02-09
2nd Is Foreclosing 1st Isn't Yet? 5 890 0 2004-02-08
Can This Be Done When Attempting A Short? 1 619 0 2004-02-08
HELP!! Owners Will Not Cooperate!!!!!! 3 700 0 2004-02-07
A Short Sale Disaster - My First Short Sale 12 2294 0 2004-02-07
FHA Short Sale - Vacant House: HELP ! ! ! 5 884 0 2004-02-07
Short Sale Gone Wrong 7 1193 0 2004-02-07
Getting The DEED... 5 981 0 2004-02-07
Short Not Accepted 14 1303 0 2004-02-07
Advice & Tips On VA Short 0 597 0 2004-02-07
Bank Won't Stop Sale, Any Suggestions? 1 751 0 2004-02-06
Principal Residential Mortgage Loss Mitigation Numbers 0 688 0 2004-02-06
Even If You Do Everything Right... 3 678 0 2004-02-06
Short Sale Denied/Filed BK, What Now? 5 879 0 2004-02-05
Short Sale On House In Chapter 13 3 803 0 2004-02-04
Purchase Note & Trust Deed -vs- Short Sale 1 699 0 2004-02-03
ShortSalePackaging 1 738 0 2004-02-03
Question About TCI's Short Sale E-Books 2 770 0 2004-02-03
QUESTION ABOUT SHORT SALE PROCEDURE 6 991 0 2004-02-03
Final Steps Of The Short Sale 11 1365 0 2004-02-03
Lenders Required 0 706 0 2004-02-03
Short Sale Help??? 1 676 0 2004-02-02
Land Contract 1 629 0 2004-02-02
1st And 2nd By Litton, The 1st Is Foreclosing, Ideas? 4 974 0 2004-02-02
How Long Should I Allow To Do A Short? 3 740 0 2004-02-02
Short Sale Procedure 5 901 0 2004-02-02
Back Taxes On Short Offer 7 691 0 2004-02-02
Purchase Agreement Clauses 1 844 0 2004-02-01
Who Offers Best Subject To Package? 21 3243 0 2004-02-29
Anyone Knows Of Title Company -- Houston, Tx 1 572 0 2004-02-28
California - Subject To Forms Needed 4 1015 0 2004-02-27
Sub2 And P&S - Fundamental Question 2 784 0 2004-02-27
Home Warranty ??? 7 872 0 2004-02-26
Sub2 Not For Begginners??? 6 1127 0 2004-02-26
Subject 2/DOS Question 4 691 0 2004-02-26
Selling Subject To Deal With A Wrap Around Mortgage Deed 4 915 0 2004-02-25
Subject 2 Or Wrap 0 641 0 2004-02-25
Second Mortgage Question 2 1452 0 2004-02-25
SELLING SUBJ TO??? 2 1130 0 2004-02-25
Qualified Intermediary 1 692 0 2004-02-25
Tricky SubTo Deal? Need Creative Solution 0 604 0 2004-02-25
John Locke Sub 2 Manual 9 1854 0 2004-02-24
Now What? 0 987 0 2004-02-24
Ok All I Just Ordered The Locke Sub 2 Manual 0 726 0 2004-02-24
Sub To...for Own Use (owner Occupied) 5 772 0 2004-02-24
Subject To's, Trusts, Gurus And Laws In NY 1 608 0 2004-02-24
Sub To Re-fi On A Manufactured Home? 0 592 0 2004-02-23
Johns Sub 2 Course 0 804 0 2004-02-23
First Time Buyer 1 594 0 2004-02-23
Possible Subject To Deal 6 923 0 2004-02-23
Is 'Sub-To' For The Newbie Investor?? 7 1003 0 2004-02-23
Buy SubTo, Give Cash Back To Seller After Refi 4 642 0 2004-02-23
Liens And Wraparound Mortgage 0 771 0 2004-02-23
Due-On-Sale Clause 2 806 0 2004-02-22
Advice Needed Quickly! Please!! 16 1541 0 2004-02-22
How To Avoid Due On Sale Clause W/seller Financing? 8 971 0 2004-02-21
Seasoning And SubTo 2 717 0 2004-02-21
Can Anyone Tell Me If This Will Work 2 642 0 2004-02-21
Getting A New Buyer... 8 1052 0 2004-02-20
Sub-To From Investment Co? 8 842 0 2004-02-19
Possible 1st Deal, Please Evaluate 7 997 0 2004-02-19
Do You Have More Leverage In A Subject-to Deal If You Offer To Re-fi ASAP? 7 1159 0 2004-02-19
Setting Up A Trust 1 727 0 2004-02-19
Complications If RE Licensed 5 826 0 2004-02-19
I Know I'm Not The Only One.... 22 1724 0 2004-02-18
Finally Found One With Equity. 1 735 0 2004-02-18
Recoding Cloud Or Interest In Title - Who Has Done It? 6 702 0 2004-02-18
CFD Vs Subject To 6 677 0 2004-02-18
Using PoA To Sign Yourself Over The Deed? 5 793 0 2004-02-18
Number 2 (or 3) Subto Seller Objection 8 828 0 2004-02-17
Due On Sale And A Wrap.need Help! 15 1876 0 2004-02-16
Looking For Contract Or Addendum... 2 723 0 2004-02-16
3 Offers 2 681 0 2004-02-16
Using A Family Trust To Hide From Due On Sale. Where's The Money? 3 822 0 2004-02-15
Tomorrow Is My Last Day At Work......... 12 1240 0 2004-02-14
Can Buyer Sell If Buying On CFD 4 652 0 2004-02-14
Hard Ball Betrween Sellar And Buyer 15 1629 0 2004-02-13
Protecting Seller's Debt/Equity Ratio 0 560 0 2004-02-13
Sub2 Contract 1 1108 0 2004-02-13
3 Questions For Pro's Only 7 1040 0 2004-02-13
L/O Vs. CFD 2 809 0 2004-02-12
Please Take A Look At This Deal And Comment. 19 2238 0 2004-02-12
What Can I Tell The Seller? 3 960 0 2004-02-12
Title 1 634 0 2004-02-12
What Will Happen... 3 734 0 2004-02-12
Newbie Looking For AZ REI Group! 2 748 0 2004-02-11
Calling On Ads 2 685 0 2004-02-11
Closing Costs, What Part Of The Process Can I Do Myself? 9 1017 0 2004-02-11
How To Understand A Deed? 4 687 0 2004-02-11
John Locke's Course 6 1299 0 2004-02-11
Necessary Forms To Close Deals 13 1161 0 2004-02-11
Sub2 Joint Venture 0 702 0 2004-02-11
SUB TO Deal ??? 3 696 0 2004-02-10
RE Agent In Sub2 Deal 3 782 0 2004-02-10
Buying A House Sub2 And The Risk Of Foreclosure 4 685 0 2004-02-10
LSC Suggestions? 0 734 0 2004-02-10
John Locke, Land Trust? 7 980 0 2004-02-10
Purchase Option 1 664 0 2004-02-10
I Hear A Lot About John's Sub To . . . 1 672 0 2004-02-10
Thoughts On A Property 3 581 0 2004-02-10
SUB2 - Why L/O And Not Retail 4 678 0 2004-02-09
Sold That TH! 6 725 0 2004-02-09
How To Catagorize 4 573 0 2004-02-09
Curious George 5 818 0 2004-02-08
Subject To 1 649 0 2004-02-08
FHA SUB2 Deal 4 868 0 2004-02-08
Can My Buyer Do This? 17 1922 0 2004-02-07
Transferring Trust Deed Into Family Trust 3 748 0 2004-02-07
Purchasing Properties In NY 'subject To' 1 635 0 2004-02-07
Sold My First SubTo Property 12 1173 0 2004-02-06
Refinancing A Sub 2 6 833 0 2004-02-06
Buying And Selling In Multiple States 2 702 0 2004-02-06
Sub2 Calculator 1 640 0 2004-02-06
Newbie Questions - Getting Started 3 743 0 2004-02-06
Iv'e Taken The Plunge - I Think! 0 730 0 2004-02-05
Homeowner's Insurance 2 856 0 2004-02-05
Subject 2..Need Help Pls. 4 639 0 2004-02-05
Title Insurance 7 889 0 2004-02-05
Additional Clause In Subto Agreements? 14 1008 0 2004-02-05
About Getting Tenants Through Newspaper Ads....... 1 873 0 2004-02-04
Help With Subject To Deals 9 1262 0 2004-02-04
Sellers Protection 4 605 0 2004-02-04
My First Appointment, Help! 4 762 0 2004-02-04
Best Investment? 0 626 0 2004-02-04
Investment Referral Companies 1 643 0 2004-02-04
Couple Questions 4 573 0 2004-02-03
Postcard/Letter Mailings 26 3380 0 2004-02-03
Benefits To The Seller 6 782 0 2004-02-03
Got My Taxes Done. THANKS John Locke 11 880 0 2004-02-02
Sub2 Closing Costs 10 743 0 2004-02-02
Turst Document 2 594 0 2004-02-02
John, William, Do They Make Next Months Payment? 5 924 0 2004-02-02
Subject To 4 759 0 2004-02-01
Analyzing Neighborhoods/cities To Invest In 0 551 0 2004-02-29
Step By Step Instructions For A Newbie (AZ) 6 1176 0 2004-02-29
Incredibly Low Offer 1 558 0 2004-02-29
Using Liability To Buy Fixer Up ? 2 547 0 2004-02-29
Buying Out A Family Member - Please Help 2 570 0 2004-02-29
Interesting Story On Real Estate Bubble 4 1037 0 2004-02-29
FMV - REO 1 706 0 2004-02-29
First Deal Question 5 962 0 2004-02-29
REO Or Wholesaler? 0 588 0 2004-02-29
Renting A Property Bought With A Non-investment Mortgage 0 627 0 2004-02-29
Like A Deer Caught In Headlights 1 564 0 2004-02-29
Would This Work For Someone Who Needs Cash, But Doesn't Want To Sell? 0 653 0 2004-02-29
Did I Find A Red Flag? 2 680 0 2004-02-29
Nervous........... 3 793 0 2004-02-29
Short Sale-Illinois-Big $$ 0 600 0 2004-02-29
Bird Dogging Basics! 0 658 0 2004-02-29
Tax Lein Information- OR / WA 1 677 0 2004-02-28
Put Your Thinking Caps On..... Problem For You.. 6 860 0 2004-02-28
So, How Would You Do This? 2 595 0 2004-02-28
Home Warranties? 2 740 0 2004-02-28
What Is The Best Way To Finance This Deal? 0 627 0 2004-02-27
REI Plans & Goals 3 683 0 2004-02-27
Inspection Problem 2 727 0 2004-02-27
Agreement For Deed? 3 544 0 2004-02-27
Currently Closing On A Condo But Want To Purchase A 2-3 Flat Within 1 Year 0 578 0 2004-02-27
First Investment Purchase ..What Addendums Clauses To Use? 2 687 0 2004-02-27
First Investment Purchase - NEED HELP!!! 10 963 0 2004-02-27
Finding Someone 0 507 0 2004-02-27
How Can I Make This A "0" Down Deal 9 921 0 2004-02-27
How Do You Interview An Accountant? 1 596 0 2004-02-27
Florida Bird Dogging Question 5 1268 0 2004-02-27
New To This......help 2 797 0 2004-02-27
Can Someone Explain The HUD Process? 4 833 0 2004-02-27
Potential Investment -Cash Flow Vs. Appreciation 1 870 0 2004-02-26
Sub To 2 728 0 2004-02-26
Need To Get Creative With The Closings Costs? Please Help! 6 753 0 2004-02-26
Need Help Negotiating On This Multi-family 0 568 0 2004-02-26
Cashing Out 2-3 Properties / Year 16 1914 0 2004-02-26
Any CPAs In The Atlanta Area With Strong REI Skills? 2 1029 0 2004-02-26
Regarding That Owner-occupied Post... 4 680 0 2004-02-26
New Jersey Property Or Owner Info??? 0 568 0 2004-02-26
Tax Question For Out-of-state Property Owners 0 701 0 2004-02-26
Potential Deal HELP! 2 615 0 2004-02-26
Real Estate Licensing 4 961 0 2004-02-26
Should I Work A Deal With A Contractor? 2 648 0 2004-02-26
My First Deal..closed! 4 812 0 2004-02-26
Real Estate Problem..buyers From Hell...need Help 21 2158 0 2004-02-26
Want To Get That First Property 0 625 0 2004-02-26
Dont Let News Of The Market Frighten You 1 656 0 2004-02-26
Identifying Trends 8 917 0 2004-02-26
Help With Jumping Through Owner-Occupied Financing Hoops... 1 707 0 2004-02-26
How Can I Get Started In This Ridiculous Market? 4 864 0 2004-02-26
Buying & Selling Multi-family Income Properties 3 1143 0 2004-02-26
Double Escrows 0 729 0 2004-02-25
Best Use Of New Condo? 0 600 0 2004-02-25
Good Profit Potential - Now What???? 6 741 0 2004-02-25
How Do You Find Your Leads? 6 994 0 2004-02-25
Leasing Now - Want To Buy The Building - Advice? 0 628 0 2004-02-25
Must You Deal With Listing Agent? 4 794 0 2004-02-25
Using Equity To Invest 2 696 0 2004-02-25
First Timer 3 703 0 2004-02-25
Newbie Needs Help!!!! 2 692 0 2004-02-25
How Do You Make Sure The Mortgage Is Paid? 1 666 0 2004-02-25
What Comes Free? 5 708 0 2004-02-25
LAND CONTRACT 4 1010 0 2004-02-25
Help Me..should I Rent To Own? 2 763 0 2004-02-25
Security Deed State? 3 688 0 2004-02-24
Feedback Request 2 755 0 2004-02-24
A Topic For A Good Article... 0 633 0 2004-02-24
My Comingling Problem 7 963 0 2004-02-24
Mobil Home..Is This A Good Deal? 10 1480 0 2004-02-24
Birddog 2 838 0 2004-02-24
Hey Bird Dog 0 703 0 2004-02-24
Prepay Penalties 1 640 0 2004-02-24
REI 0 447 0 2004-02-24
Advice On Townhomes In Poconos 0 642 0 2004-02-24
Shoul I Or Should I Not? 2 600 0 2004-02-24
Put Fake Ad In Paper Now What!! 4 760 0 2004-02-24
Annual Rent Is $40K 0 577 0 2004-02-24
No Money For Commercial? 6 769 0 2004-02-24
Far 8???? 0 493 0 2004-02-24
Next Step For Newbie? 3 905 0 2004-02-24
CASINO Effecting Housing Prices??? 3 870 0 2004-02-24
Will Builders Owner Finance? 1 761 0 2004-02-24
Thank You To All 0 593 0 2004-02-24
Need Advice - Agent/seller Dilemma 7 718 0 2004-02-24
Need $100 Worth Or Resources From This Site To Retain Membership 2 924 0 2004-02-23
Is Birddogging For The Scared Or Fearless? 7 823 0 2004-02-23
I Had Put This Post In Lease Options But Didnt Get Any Feedback Or Help 0 703 0 2004-02-23
Realtytrac 2 783 0 2004-02-23
Questions To Pre Qualify Seller, Property 2 609 0 2004-02-23
Putting Down The Books And Stepping Out? 2 664 0 2004-02-23
You Don't Need Money To Do Deals!!!!! 28 3363 0 2004-02-23
How To Find Owner Of Vacant Property 4 1002 0 2004-02-23
Diamond Farming 2 856 0 2004-02-23
Tenant Screening 0 750 0 2004-02-23
Commercial Property For A Non Profit 1 538 0 2004-02-23
CAN ANYONE HELP? 5 776 0 2004-02-23
Different Types Of Deeds 1 613 0 2004-02-23
Runnig The Numbers-seing If You Got A Good Deal 8 759 0 2004-02-22
Is This Financing Possible? 5 763 0 2004-02-22
Advice On Educational And Online Services 10 860 0 2004-02-22
Need Advice 1 485 0 2004-02-22
Forum Question Regarding Recruiting. 10 1119 0 2004-02-22
Anyone Knows Any Good Mentors, Seminars In MI? 0 634 0 2004-02-22
Financing Your First Deal 2 823 0 2004-02-22
Got Lots Of Property In Cinci.... 2 632 0 2004-02-22
Sandwich Lease Or Not? 0 534 0 2004-02-22
Is Beachfront Invest Good Idea? 6 896 0 2004-02-22
NEED HELP....QUICK 4 707 0 2004-02-21
New England 1 1020 0 2004-02-21
Out Of State REI 1 582 0 2004-02-21
1099s Tax Question 1 658 0 2004-02-21
I Need Some Advice-please 1 756 0 2004-02-20
Birddog Information Pack? 1 776 0 2004-02-20
Can't Close The Deal 15 1496 0 2004-02-20
Escrow? What The Crap? 5 795 0 2004-02-20
Title Companies 7 747 0 2004-02-20
I Need A Mortgage Form 3 804 0 2004-02-20
FMV? 1 793 0 2004-02-20
A Good Start? 2 706 0 2004-02-20
William Bronchick 3 824 0 2004-02-20
Looking For Very Good Tax Accountant In Pinellas/Pasco Counties 0 690 0 2004-02-20
Bird Dog Fee Or Agreement! 0 1014 0 2004-02-19
Another NEWBIE Needs Help!! 3 646 0 2004-02-19
Lis Pendens In Cook County, Illinois 2 933 0 2004-02-19
Getting Into The Game In SW Florida! 5 808 0 2004-02-19
Looking For Reputable Mortgage Company 2 612 0 2004-02-19
Looking For Info/guidance On Possible Deal 4 835 0 2004-02-19
Advice Needed For My First Possible Deal 0 527 0 2004-02-19
Getting Started 1 684 0 2004-02-19
Tax Law Advice 0 503 0 2004-02-19
Ballpark Birddog Fee For Unsure Investor 7 765 0 2004-02-19
No Luck! 2 755 0 2004-02-19
Lufos Aka Lucius 24 2295 0 2004-02-19
Calls From Tire Kickers 3 800 0 2004-02-19
Do I Need To Close To Flip A New House 3 625 0 2004-02-19
Accounting And Tax Software 3 673 0 2004-02-18
Double Close Help 1 612 0 2004-02-18
Have Large Buyers List Now What ? 0 570 0 2004-02-18
Is Getting A Real Estate License A Good Idea? 19 2466 0 2004-02-18
How To Structure Deal?? 0 753 0 2004-02-18
Costs To Foreclose? 2 711 0 2004-02-18
Birding Dogging Best Way To Advertise Services? 4 864 0 2004-02-18
Hud-owner Occupant 6 904 0 2004-02-18
Kinda Silly And Not Important...but Curious 8 1150 0 2004-02-18
Anyone Familar With REO World Or Asset Managment Company? 0 610 0 2004-02-18
Quality Short Sale Package 0 495 0 2004-02-18
Ideas Please. 5 800 0 2004-02-18
I Need A Mentor 1 664 0 2004-02-18
"California Dreamin" 7 770 0 2004-02-17
Finding An Accountant 2 590 0 2004-02-17
Vacant Property 2 563 0 2004-02-17
Need Help...what Would You Do??? 7 692 0 2004-02-17
Possible Deal But Have Some Questions....please Help 3 619 0 2004-02-17
Investment Idea But Not Sure If Doable?? 11 1055 0 2004-02-17
Newbie Has REI Terms Questions 2 648 0 2004-02-17
Figure For Approx Market Value Based On Taxes Possible? 0 508 0 2004-02-17
Need Advice On My First Potential Deal 1 602 0 2004-02-17
Buying From FSBO- All Cash Same As Mtg? 0 629 0 2004-02-17
Michigan (Southeast) REI Club? 3 719 0 2004-02-17
Multi Family Semantics 4 730 0 2004-02-17
If Buying A Home Or Condo That's Not Built Yet... 10 885 0 2004-02-17
Agents Not Listing, Only Buying 8 875 0 2004-02-16
Public Records 1 745 0 2004-02-16
Looking For An Old Reply From A Mortgage Investor 5 717 0 2004-02-16
Please Advise On This Possible Deal 0 581 0 2004-02-16
HELP!!!! 8 778 0 2004-02-16
Just Market Value Vs. Fair Market Value? 4 806 0 2004-02-16
Question About Site Membership And About A Program 1 669 0 2004-02-16
First Time Investment Property 2 936 0 2004-02-16
Tech Supp-Can't Find One Of My Questions 0 598 0 2004-02-16
Bird Dog Contract 11 1533 0 2004-02-16
Suggestions To Locate Pvt$ On Lots - Lender Finder No Help 0 608 0 2004-02-15
Distribution Of Profits 0 555 0 2004-02-15
Some Much Info! Where To Start? 1 679 0 2004-02-15
Seems Like A Silly Question 1 600 0 2004-02-15
TAX QUESTION 0 635 0 2004-02-15
What If There Is No Local REI Club?? 2 746 0 2004-02-15
How Could I Pull Of This Great Buy? 6 714 0 2004-02-15
HELP! I'm New And Need A Lot Of Guidance! 22 2269 0 2004-02-14
Pros And Cons To Apt/condo Investing 3 920 0 2004-02-14
Would You Use A Credit Card? 2 653 0 2004-02-14
Bird Dog Contracts 1 864 0 2004-02-14
Investment Question On A Downtown Condo 3 584 0 2004-02-14
How To Get Information On A Boarded Up House? 4 722 0 2004-02-14
~Buying Income Property~ 2 956 0 2004-02-14
SoCal CPA? 0 568 0 2004-02-14
Starting A LLC Or Corp What To Do In The Meantime? 4 764 0 2004-02-14
Getting Tenants 4 634 0 2004-02-13
How Does This Work? 1 561 0 2004-02-13
So I'm Going To Go Look At My First Property Tonight 5 762 0 2004-02-13
Financing For Home In Mexico 0 584 0 2004-02-13
Newbie With Good Leads Looking For Seed Money 0 623 0 2004-02-13
Need Help Getting Started 2 839 0 2004-02-13
Owner Financed Sale Question 2 724 0 2004-02-13
Has Anyone Used A Group Mailer Program? 0 611 0 2004-02-13
I Need And "out" Clause In My Offer 8 700 0 2004-02-13
Should I Sell Out Or Rent Out? 15 1763 0 2004-02-13
Probate? 11 727 0 2004-02-13
Help With Tenant Selection 7 736 0 2004-02-13
Newbie Question On Getting Started 0 582 0 2004-02-13
Financing Expert Needed!!!!!!! 5 700 0 2004-02-13
Stupid Question But Something I Don't Get 2 625 0 2004-02-13
Newbie Needs Help.... 1 639 0 2004-02-13
I'm Pre-approved And Confused... 0 650 0 2004-02-13
Hola! New Guy From Central Illinois... 0 673 0 2004-02-12
Probate Partner 0 512 0 2004-02-12
Help!!! 2 Houses, 1 Deal. Creative Solution? 0 508 0 2004-02-12
New Sheets Student In Houston, TX 1 655 0 2004-02-12
Newbie Help On Materials To Read 1 638 0 2004-02-12
Credit Scores Are Freaky! 6 691 0 2004-02-12
Hard Money Lenders And The Recently Self-Employed 9 936 0 2004-02-12
What Works? 17 2026 0 2004-02-12
Bad Credit And Dreams Of Getting Debt Free And Into Real Estate 10 1551 0 2004-02-11
Do Real Estate Agents Really Help 6 778 0 2004-02-11
Current Steps Of Improvement And Advice To Further Sucess 1 834 0 2004-02-11
How Do You Make Sure You Get Paid For Bird Dogging 3 811 0 2004-02-11
Assigning Contracts???? HELP!!! 5 902 0 2004-02-11
Don't Kill Me But....What Is Bird Dogging??? 15 1661 0 2004-02-11
Newbie Question 2 647 0 2004-02-11
Am I Prepared To Take The Plunge? 5 770 0 2004-02-11
FSBO List 3 592 0 2004-02-11
Where Am I???? 1 612 0 2004-02-11
Rookie Investor Seeking Advice On New York Investing Opportunities 2 736 0 2004-02-11
Difference Between SFH And Multi-Family 5 652 0 2004-02-11
Possible 1st Time Deal - Advice Needed 5 654 0 2004-02-11
Buying Vacant Lots To Rent To Mobile Home Owners. Good Or Bad Idea? 0 764 0 2004-02-11
Little Help 1 553 0 2004-02-11
Buying Rental Property Out Of My Area 9 895 0 2004-02-11
What Is A Bird-Dog Looking For??? I Need Some Reading Material 4 751 0 2004-02-11
Property Locators 1 592 0 2004-02-11
Will Lease Improve Value? 5 746 0 2004-02-11
Too Many Options To Choose From?!? 2 487 0 2004-02-11
I Was Told This Is Illegal. HUH?! 41 2894 0 2004-02-11
Just Starting - Need Tax Lien Advice 5 551 0 2004-02-11
Clubs 0 489 0 2004-02-10
Where Is Best Place To Find Independent Real Estate Investors? 5 773 0 2004-02-09
Hmmmmm. What Should I Do Next? 5 610 0 2004-02-09
Bird Dogging 101 8 1234 0 2004-02-09
Help Renting Units 4 875 0 2004-02-09
What's Better: Lease/option Or Owner Financing? 3 563 0 2004-02-09
Sec 8 Info 10 845 0 2004-02-09
Public Records 2 683 0 2004-02-09
CAP Rate And What Would Be A Good Price On Triplex? 7 660 0 2004-02-09
REI Guru's 5 598 0 2004-02-09
Putting Together A CRE Team 1 623 0 2004-02-09
Making An Offer--when? 2 558 0 2004-02-09
HELP, I Am New At This And Am Confuse On Trustee Sales 4 692 0 2004-02-09
Commercial Property Question 3 465 0 2004-02-08
Bird Dogging.....Why Start Out There? 2 637 0 2004-02-08
Pinellas County ,florida 0 583 0 2004-02-08
Thoughts On A Property 1 520 0 2004-02-08
Thank You Tcinvestor.com 1 595 0 2004-02-07
Wanting To Start Bird Dogging, But No Clubs Or Networking Opportunities 2 754 0 2004-02-07
Bird Dogging 0 628 0 2004-02-07
Life Estate For Sale??? What Is This? 1 515 0 2004-02-07
Frustrated And Don't Know Where To Start 4 976 0 2004-02-07
Found A Motivated Seller...What Are The 1st Questions To Ask? 0 583 0 2004-02-07
Which Road To Take 11 776 0 2004-02-07
Is This Ethical? 5 690 0 2004-02-07
Filing A Memorandum At The Courthouse 1 488 0 2004-02-07
Bird-dogging 1 1082 0 2004-02-07
Help Getting A Good CPA For REI 5 690 0 2004-02-07
Preforeclosure 2 660 0 2004-02-07
Land Contract? 2 503 0 2004-02-06
Purchase Offer 1 686 0 2004-02-06
Looking 4 RE Agent In (North NJ) Area 0 767 0 2004-02-06
Why Bird Dog? 3 597 0 2004-02-06
New And I Live In A Very Profitable Area 1 564 0 2004-02-06
Is This A Good Deal 0 502 0 2004-02-06
Newbie Question 2 596 0 2004-02-06
Want To Introduce Myself And Ask A Few Questions 2 620 0 2004-02-06
Owner Financing Help 1 548 0 2004-02-06
About Top Jump In 1 651 0 2004-02-06
Need Advice On Sellig Myself To Mentors 9 860 0 2004-02-06
REI Clubs 1 642 0 2004-02-06
RE Agent Question 3 580 0 2004-02-06
How In The World Do I Do This? 9 718 0 2004-02-06
"Getting Started In REI" Checklist, Did I Miss Anything? 2 837 0 2004-02-05
Real Estate Website 6 937 0 2004-02-05
Mr. Deeds 0 522 0 2004-02-05
When You Make Offers So Low They Dont Call You Back... 7 818 0 2004-02-05
What To Look For? 0 521 0 2004-02-05
Local Bank REO Departments Aim To Please 0 787 0 2004-02-05
Feedback On First Am Res? 4 515 0 2004-02-05
Best Materials To Begin With 8 786 0 2004-02-05
Getting My Credit Score 7 825 0 2004-02-05
BIRDDOG DESCRIPTION 7 943 0 2004-02-05
Selling Without An Attorny 4 694 0 2004-02-05
Hud Home 1 530 0 2004-02-05
Beach / Resort Rental Property - Any Thoughts? 2 563 0 2004-02-05
Just Curious........ 25 1990 0 2004-02-05
Best Way To Assemble Investor List And Hard Money Lenders 0 671 0 2004-02-05
To LLC Or Not To LLC 4 749 0 2004-02-05
Northwest Florida Bird-dog/REA Looking For Investors... 1 772 0 2004-02-05
REI Club 6 783 0 2004-02-04
Experienced BirdDog Looking For Investors In NC And SW Fl 3 598 0 2004-02-04
Listening To Ya' Lufos 6 626 0 2004-02-04
Property Record Shows No Date Or Purchase Price 11 942 0 2004-02-04
Birddog Article 6 691 0 2004-02-04
Money Lenders 5 613 0 2004-02-04
Is This A Scam? 12 2023 0 2004-02-04
Condo Buyout 0 508 0 2004-02-04
NOTICE OF DEFAULT 2 584 0 2004-02-04
As A Newbie In REI, At What Point Do You Line Up Lenders? 3 677 0 2004-02-04
Help: Trying To Work Out A Financial Base..any Input? 2 599 0 2004-02-04
I Need Friendly Advice! A Thumbnail Sketch! 0 559 0 2004-02-04
WooHoo! Did A Deal...now What? 1 583 0 2004-02-04
Who Wants A Mentor? Not Me! 17 1973 0 2004-02-04
Need Advice 5 742 0 2004-02-04
Unsolicited Bids 0 525 0 2004-02-04
Public Source For Past Sale Prices And Property Info. 6 928 0 2004-02-04
I Am Getting More Confused The More I Read..HELP!! 3 1031 0 2004-02-04
Newbie Trying To Get Past The INTIMIDATION Factor! 6 953 0 2004-02-04
Deal Analysis Form 0 549 0 2004-02-04
Where Would I Post This Info? 3 543 0 2004-02-04
Developer Unloading Too Many Properties!!! 6 687 0 2004-02-04
TCI Jail Question... 3 755 0 2004-02-04
Can The Seller Break The Rea Listing Contract? 6 653 0 2004-02-04
Wholesaling/birddog Difference? 0 582 0 2004-02-03
Bird Dog Question 4 814 0 2004-02-03
This Is Why We Check And Double Check. 0 569 0 2004-02-03
New From New York 8 966 0 2004-02-03
Birddog Question 2 720 0 2004-02-03
Illegal Birdogging 4 952 0 2004-02-03
Lenders 0 566 0 2004-02-03
Contract Question 2 633 0 2004-02-03
Information For NOD And NOS 0 601 0 2004-02-03
Moving To Vegas...Need Some Advice And Help! 8 737 0 2004-02-03
Tulsa Birddog 1 568 0 2004-02-03
Here's The Deal. 2 657 0 2004-02-03
Deal Analysis 2 3 555 0 2004-02-03
What To Buy For First Property? 4 666 0 2004-02-03
Rookie Innvestor In Need Of Some Guidance 3 927 0 2004-02-03
Help With Owner Financing, Please! 2 601 0 2004-02-03
HUD Rules In Baltimore City 4 587 0 2004-02-03
Question On Contract 0 566 0 2004-02-02
Contract???? 4 702 0 2004-02-02
Social Security Number On Hud 1 2 634 0 2004-02-02
SHORT SALE WITH HOMEQ 5 3002 0 2004-02-02
Enlightenment On Probate Property 6 659 0 2004-02-02
Do I Stay Licensed Or Pursue Foreclosure Investing Full Time? 9 782 0 2004-02-02
What Can I Charge The Bank To Manage These Houses?? 0 544 0 2004-02-02
Newbie Query About My $$ And What To Do 6 726 0 2004-02-02
Newbie Requires Clarification!! 2 719 0 2004-02-02
Comps????????? 39 3155 0 2004-02-02
Beginner Looking For Good Books 8 663 0 2004-02-02
Lender Issues With Buying And Selling 5 671 0 2004-02-02
"Proof Of Funds Or Prequal Letter" - Is This A Filter? 3 889 0 2004-02-02
Deal Analysis 1 4 589 0 2004-02-02
What If I Don't Have Any Cash? 8 830 0 2004-02-02
Protecting Yourself If You Did Your Own Rehabbing 7 646 0 2004-02-01
Why Are You Guys Not Watching The Super Bowl? 1 560 0 2004-02-01
Thoughts On Getting Started 2 702 0 2004-02-01
Advice On 6 Family 3 861 0 2004-02-29
Need Help Negotiating On This Multi-family 1 664 0 2004-02-26
Second Opinion Re: 5 Unit. 4 763 0 2004-02-26
What Would This Be Worth To You? 5 891 0 2004-02-26
Church For Sale - Possible Multi-family?? 14 1273 0 2004-02-26
Confused About The Numbers 10 954 0 2004-02-26
Need Advice ASAP. 2 594 0 2004-02-25
Estimate Management Requirements 1 860 0 2004-02-25
Neophyte 1 675 0 2004-02-24
Rehab Financing For Multi Unit !! 1 716 0 2004-02-23
Seminar 1 662 0 2004-02-23
What Do You Guys Think About This Deal 1 770 0 2004-02-21
Things Happen For A Reason 6 866 0 2004-02-20
Is This A Good Deal?......HELP 3 547 0 2004-02-20
Any Ideas How I Can Handle This? 8 842 0 2004-02-20
Would Like Some Input On This Deal - Any Insight? 1 747 0 2004-02-19
I Need More Books To Read........ 7 860 0 2004-02-19
Advice On 4family Numbers 7 936 0 2004-02-18
If You Could Start Over Right Now.... 5 987 0 2004-02-18
Advice Requested On Multifamily Purchase 13 1103 0 2004-02-18
Loosing Job, Need Income 11 1219 0 2004-02-17
DEAL WORTH DOING? Lufos ? John Locke? 14 1203 0 2004-02-17
REI Math 3 772 0 2004-02-17
Wholesaling Multi-families 11 908 0 2004-02-16
How To Write Seller Carryback Notes To Be Forgiven? 6 1166 0 2004-02-16
Located Owner Of 2 Buildings, Now What? 5 577 0 2004-02-15
Can't Seem To Purchase My First Property. 2 838 0 2004-02-14
Negotiating W/ The Seller's Agent... 3 643 0 2004-02-14
Multi Family Investing Strategy 10 1111 0 2004-02-14
Do I Need Good Income To Make A Multi Purchase? 12 1441 0 2004-02-12
Lenders And Multifamily 13 1402 0 2004-02-12
Help In Analysis? 11 883 0 2004-02-11
Have I Missed The Market? 21 2433 0 2004-02-10
TAX CREDIT Status Under Review By IRS 0 753 0 2004-02-10
NEED SOFTWARE ADVICE 4 868 0 2004-02-09
Question About Renter Headaches? 2 714 0 2004-02-09
Met With The Seller Today 0 638 0 2004-02-07
Any Opinions On Multi Guru John Dessauer??? 0 589 0 2004-02-06
Starting Up Group Homes 1 617 0 2004-02-06
85% For Multi-family 5 Plus Units, ARMs As Low As 3% 1 1474 0 2004-02-06
22 Unit Building 12 1276 0 2004-02-06
Need Advice On Price Reduction 6 607 0 2004-02-05
Modular Homes 10 1323 0 2004-02-04
What Is NOI? 6 704 0 2004-02-04
Is This A Deal Or A Problem Waiting To Happen? 6 793 0 2004-02-03
Good Formulas For Analyzing Properties... 3 1001 0 2004-02-02
Buying First Home 5 653 0 2004-02-02
Which Is Best? 2 527 0 2004-02-01
Financing Multi-famliy 2-4 Units 3 938 0 2004-02-01
Vacant Home Ad 0 633 0 2004-02-28
FSBO - Listing In The MLS 5 869 0 2004-02-27
Business Cards 4 1010 0 2004-02-27
Business Cards 12 1531 0 2004-02-26
Marketing To Fed Up Landlords 5 839 0 2004-02-25
How And Where? 0 515 0 2004-02-23
Postcards Software 2 861 0 2004-02-23
Marketing Question, Is It A Good Idea? 1 628 0 2004-02-23
Looking For An Investor Cant Find Out Were To Place An Ad 1 696 0 2004-02-23
Vacant House 6 850 0 2004-02-22
2 Types Of Business Cards 7 1212 0 2004-02-22
Inspection Costs 2 550 0 2004-02-21
How Can I List My Home On The MLS? 3 696 0 2004-02-21
Homes Without Basements? 8 754 0 2004-02-20
Marketing For Private Investors? 6 1067 0 2004-02-18
Demographic Information 2 800 0 2004-02-15
Trying To Buy A House For Cheap How Whould I Do This? 5 1040 0 2004-02-13
Marketing??? 2 735 0 2004-02-12
Got Pulled Over Tonight Putting Out Bandit Signs (TX) 10 1238 0 2004-02-11
MARKETING FOR PROBATE PROPERTIES! 1 861 0 2004-02-10
Laws About Signs 2 705 0 2004-02-10
Buying Property At The Courthouse 3 693 0 2004-02-09
Question For Atlanta Investors 0 635 0 2004-02-07
How Is This Idea? 7 714 0 2004-02-06
Section Of Paper To Place "We Buy Houses" Ad 7 1055 0 2004-02-06
How To Seal The Deal Without Over Paying !!! 2 680 0 2004-02-05
HELP!!! 2 731 0 2004-02-05
It's All In The Name....... 6 729 0 2004-02-05
Do I Have To Seperate 1 579 0 2004-02-05
Best Way To Market Properties. 6 928 0 2004-02-05
Flyers That Look Like $100 Bills? 18 2941 0 2004-02-05
Contracts And Forms 4 736 0 2004-02-05
Ads For Private Money Or Investors 3 805 0 2004-02-05
Call For Free Report Verbiage 7 628 0 2004-02-05
Newspaper Classifieds Vs. Thrifty Nickle (small, Free, Ad Papers) 10 1295 0 2004-02-05
How Do I Reel This One In? 5 724 0 2004-02-05
Anyone Tried This Ad? 8 1405 0 2004-02-05
"i Buy Pretty Houses" Newspaper Ad 8 922 0 2004-02-05
A Better Suggestion 0 766 0 2004-02-05
Marketing 0 664 0 2004-02-03
Investor Wanted!! 5 984 0 2004-02-02
Paid Collections Bringing Down Score 3 899 0 2004-02-29
Addicted To The Creative Investor? 24 1984 0 2004-02-29
Real Estate Licensing 5 812 0 2004-02-29
Credit Repair $1000??? 8 820 0 2004-02-29
Paying Bills 3 889 0 2004-02-28
Deleting A Derogatory Item 17 2232 0 2004-02-28
Greenspan Speaks! 1 More Reason To Get Involved In RE! 8 758 0 2004-02-27
Credit Counseling Services 14 1249 0 2004-02-24
How Does A Paid Off House Affect Credit If Yours Is Not Very Good? 10 893 0 2004-02-24
Stuck! Need To Reduce Debt 5 953 0 2004-02-23
Cc 2 792 0 2004-02-23
Collection Question 4 721 0 2004-02-23
Starting With Cleaning Up Old Addressess? 8 797 0 2004-02-23
Credit Card Settlement 14 1033 0 2004-02-22
BK Of Another Showing Up On Credit?? 4 637 0 2004-02-21
Is There Something I Can Do? 2 543 0 2004-02-21
Need FICO Scores 16 2035 0 2004-02-20
Dave Ramsey 6 798 0 2004-02-18
Credit Challanges 2 815 0 2004-02-17
How Soon Can We Buy A Home After Chapter 7 12 1633 0 2004-02-17
I See The Bank Tommorrow, Your Thoughts 2 630 0 2004-02-16
Question Before Buying A House 4 646 0 2004-02-16
What Is A PLUS Score? 7 786 0 2004-02-16
Quick ? 2 561 0 2004-02-16
Creditor Still Reporting After B/K 8 1083 0 2004-02-16
FICO Score Vs. Interest Rate. 13 906 0 2004-02-16
How Do I Raise A 640 FICO Score To Above 700? 14 2120 0 2004-02-16
Paying Down Debt. Any Suggestions? 13 1225 0 2004-02-15
620 Fico Now A 650 Fico...what Are My Chances? 1 780 0 2004-02-14
What's A Good Credit Score For REI? 8 966 0 2004-02-13
Looking For Advice 0 593 0 2004-02-06
Should This Still Show On My Credit Report? 3 593 0 2004-02-05
No Credit, Almost Worse Then Bad Credit! 13 889 0 2004-02-04
Newbie, Cjheath Thanks 0 618 0 2004-02-03
Windfall, Pay Off Credit Cards Or Invest? 9 1349 0 2004-02-02
Elminate Or Terminate Unsecured Debt? 1 642 0 2004-02-02
First Post! Credit Card Balance Questions. 0 570 0 2004-02-02
Needing Some Advice Plz 4 690 0 2004-02-01
Foreclosure Sale In 3 Days 3 634 0 2004-02-01
Step By Step 2 683 0 2004-02-27
Financing Land, Is That Feasible? 3 913 0 2004-02-26
Any Big Savings Building Modulars Over Stick-builts? 24 2780 0 2004-02-25
Financing Newly Built Homes? 0 679 0 2004-02-24
N.j Newbie Getting Involved In My First Modular Homes 6 841 0 2004-02-24
Putnam County, FL. 2 621 0 2004-02-23
Utah Comps 3 607 0 2004-02-23
2nd Mortgage On Vacant Land??? 0 549 0 2004-02-23
Vacation Homes 1 676 0 2004-02-23
Hard Money Lender In So. Utah 0 675 0 2004-02-22
Need Advice/opinions On Choosing/purchasing Land And House Building Options. 4 960 0 2004-02-21
Advice As To Finding Serious Investors In The Boston Market In Builing Homes. 1 695 0 2004-02-20
What Do I Do Next?? 6 812 0 2004-02-20
Storage Buildings 3 1045 0 2004-02-20
I Want To Tear Down This House 5 864 0 2004-02-19
Steps On Selling Raw Land 6 1340 0 2004-02-19
High-rise Condo 4 699 0 2004-02-19
What Do You Think Of These Numbers? 3 922 0 2004-02-18
Overcoming A Lack Of Age/experience 4 732 0 2004-02-18
Partnering With Contractor On High $ Spec Home 16 1814 0 2004-02-17
Newbie With Questions On Devolpment 1 835 0 2004-02-16
Looking For A Good Builder To Deal With... 0 696 0 2004-02-11
Rental Conversion 5 774 0 2004-02-09
Building My First Home 7 851 0 2004-02-09
Looking To Build A House In Bay Area 5 1009 0 2004-02-08
Develop Land In Michigan - Newbie Needs Help! 3 711 0 2004-02-04
Vacant Family Land Confusion?? 2 673 0 2004-02-04
Advertising And Selling My Ifrst Spec Home. 3 801 0 2004-02-01
How To L/O With No $$ Down 2 926 0 2004-02-28
Assign A Lease-Option 10 983 0 2004-02-28
Lease Option A Business? 3 661 0 2004-02-27
What Would Be The Best Option? 3 620 0 2004-02-27
L/O Questions/ Personal Property 0 473 0 2004-02-26
Need Biz Plan Sample 0 625 0 2004-02-26
Lease Option - Tenant Buyers 0 612 0 2004-02-26
Experience With TenantStream? 2 1130 0 2004-02-26
Tenant Stream 8 1481 0 2004-02-26
Can You L/O A 389k Home? 3 637 0 2004-02-26
Who Is Liable 0 472 0 2004-02-26
Lease Option Mortgage Forms 3 736 0 2004-02-25
Clearly Getting Out Of A Deal. 6 950 0 2004-02-25
Possible LO Deal 0 725 0 2004-02-25
Can You Lease A Property On A Lease Option And Then Subrent It To Multiple Renters? 2 705 0 2004-02-25
Whats The Best Direction 5 586 0 2004-02-25
Should I Be A L/O Purchaser In This Deal???? 0 556 0 2004-02-24
Wanted! The Best Ads For Finding Motivated Sellers 5 1136 0 2004-02-24
Lease Option Language 0 543 0 2004-02-24
Lease Option Through A Real Estate Agent 0 616 0 2004-02-24
Lease-option Document 1 824 0 2004-02-24
Real Estate Agent /investor 3 675 0 2004-02-24
LLC 0 582 0 2004-02-24
Lease/Option A Lower Monthly Payment Than Seller Pays Bank 5 730 0 2004-02-24
My First Lease Option Need Help 3 634 0 2004-02-23
Question 5 613 0 2004-02-23
Rent, Lease/option Or Sell???Need Advice BAD!!! 4 737 0 2004-02-23
Don't Have A Clue...HELP Best Course/book For.. 8 779 0 2004-02-22
Opportunity To Get My Feet Wet? 1 636 0 2004-02-21
Showing A Property Prior To Closing 15 1525 0 2004-02-21
Confused About Lease Option Closing 3 782 0 2004-02-20
Newbie Needs HELP!!! 0 555 0 2004-02-19
The ABC Of Renting To Own? 9 1608 0 2004-02-19
Looking To Lease Option Or Wholesale A House In Fairport Ohio 0 540 0 2004-02-19
Am I Ready Or Am I Missing Something? 17 2067 0 2004-02-19
Can I Spend The Option Money? 14 1295 0 2004-02-18
I Need A Property Cash Flow Tool? 5 680 0 2004-02-18
Help.. I Have A L/O Buyer... W/o A L/O Property... 6 790 0 2004-02-17
Real Estate Pro's Only 5 789 0 2004-02-15
Lease To Own Agreements 4 971 0 2004-02-14
Best Day(s) To Place House For Sale Ads? 1 727 0 2004-02-14
What If The Note Holder Dies And You Have The Dee? 1 707 0 2004-02-13
Seller Finance 1 907 0 2004-02-12
Lease Option Title Seasoning 0 584 0 2004-02-12
Paying Capitol Gains On Investment Property Sold 0 937 0 2004-02-11
AD Kessler Mentoring Program? 5 859 0 2004-02-11
Need To Find Proper Paperwork And REI Attorney 2 660 0 2004-02-11
Steal Tenant-buyers From Apartments? 4 696 0 2004-02-08
If I Buy A House For 90k???? 5 819 0 2004-02-08
Profitability Of Lease2purchase Investing In Germany 0 553 0 2004-02-08
Unclear About Subtenant L/O Contract 0 672 0 2004-02-08
Lease Option Strategy 3 927 0 2004-02-07
Getting Paid At Termination Of The Lease 1 899 0 2004-02-07
Just Want To Protect Myself... 0 629 0 2004-02-07
Lease Options 2 839 0 2004-02-07
Lease Option Texas/California? 5 1047 0 2004-02-07
How Do I Structure A Lease-option Deal... 2 803 0 2004-02-06
Lease Option Vs Contract For Deed 5 1014 0 2004-02-06
Mailing To Soon To Be Expired MLS Listings 2 1096 0 2004-02-06
Pre Forclousure Deal Nead Short Sale Advice 2 802 0 2004-02-06
Atlanta Investors! 1 727 0 2004-02-06
Rehabbing 1 569 0 2004-02-06
Regarding Topics From Earlier Today 1 495 0 2004-02-05
Investors 2 569 0 2004-02-04
How To Make This Work 4 736 0 2004-02-04
Should I Lease / Option From A Couple That Is Divorcing? 9 1043 0 2004-02-04
Closing In On 1st Deal, But May Have Hit A Snag 6 774 0 2004-02-02
Tenant Buyers - Source 3 714 0 2004-02-02
Lease Option 2 Family 2 612 0 2004-02-02
HOA Dues 3 733 0 2004-02-02
Money Needed For Rehab 5 734 0 2004-02-02
Buying OWC Deals - Feedback On This One? 1 545 0 2004-02-01
Evaluating Property Management Companies 2 611 0 2004-02-29
Previous Landlord??? 1 549 0 2004-02-29
Calculating Expenses On Rental Peoperty 3 683 0 2004-02-28
Rental Property Insurance Nightmare 8 1189 0 2004-02-28
HOW MUCH NOTICE? 3 915 0 2004-02-27
Give It A GO, Or Hire A PRO? 7 788 0 2004-02-27
Do You Charge A Renter's Application Fee 11 818 0 2004-02-27
Got A Possible Tenant, Need Some Help Please 7 760 0 2004-02-26
ProForma-nator Says No - Am I Crazy? 5 947 0 2004-02-26
Section 8 Question 6 1095 0 2004-02-25
Maintenance Agreement 4 637 0 2004-02-25
Help Clarify? 7 792 0 2004-02-24
Set Asides For Rental Repairs? 4 983 0 2004-02-24
Best Way To Proceed Next? 2 612 0 2004-02-23
Pets And Renting 5 674 0 2004-02-23
Rental Insurance 11 855 0 2004-02-23
Multiple Single Rental Unit Purchases 8 900 0 2004-02-23
Running The Numbers??? 3 706 0 2004-02-23
Spanish Agreements 3 576 0 2004-02-22
How Do I Figure This Number Out? 11 935 0 2004-02-22
Debt Coverage Ratio: What Is The Range? 3 739 0 2004-02-21
Comments On Foremost For Landlord's Policy? 3 716 0 2004-02-21
License To Manage In CA? 8 600 0 2004-02-19
First Contact With Potential Tenant 6 836 0 2004-02-19
High Vacancy Rates, Falling Rents 8 904 0 2004-02-19
Move Out Procedure 1 606 0 2004-02-19
My First Rental: Now What? 3 809 0 2004-02-19
Rental Property Evaluation!!! 18 2270 0 2004-02-18
Property Management???!!!! 13 1040 0 2004-02-17
Purchased A 4 Unit, 2 Units Are Already Rented Do I Need A New Lease Agreement? 8 680 0 2004-02-16
Tenents And Guns 12 816 0 2004-02-16
Spare Key 3 623 0 2004-02-15
Determining Proper Heating Capacity... 0 578 0 2004-02-15
What Is NOI? 2 648 0 2004-02-14
100% LTV HELOC Or Cash Out 1 622 0 2004-02-14
Property Management In Upstate NY 0 557 0 2004-02-14
I Don't Speak Spanish. What Do I Do? 16 1640 0 2004-02-14
Setting Rents By Turnover 3 582 0 2004-02-13
Calif. Lanlord Needs Help Evicting Tenant. 2 651 0 2004-02-13
Cash Or Support Our Troops? 17 1635 0 2004-02-12
Pricing Rental Property 1 785 0 2004-02-12
Section 8 1 728 0 2004-02-12
Fees For Late Rent Payment 3 774 0 2004-02-12
Renter Application Form. 1 747 0 2004-02-11
Bestway To Rent And Rental Contract 1 847 0 2004-02-11
Big Tenant Problem - Help!! 8 988 0 2004-02-11
Section 8 Housing In Metro-Detroit! 1 754 0 2004-02-11
How Do You Figure Cap Rate? 1 776 0 2004-02-11
Buying Rental Properties 1 703 0 2004-02-10
Receipt? 4 760 0 2004-02-10
Is This A Good Idea? 5 785 0 2004-02-10
Negotiable Security Deposit 9 709 0 2004-02-09
My Plan 58 5097 0 2004-02-08
Showing A Rental Unit 9 1430 0 2004-02-05
Help Wanted: Markets For Good Multi-Unit Payout 0 633 0 2004-02-05
Section 8 8 928 0 2004-02-05
Old, Lower Income Rental Units 12 1264 0 2004-02-05
Two Extreme Types Of Rental Properties. 5 706 0 2004-02-05
Need Help Fast--trying To Put A Deal Together! 2 666 0 2004-02-03
How Do You Properly Evaluate A Rental??? 3 968 0 2004-02-03
Landlording And Bankruptcey 1 653 0 2004-02-03
Planning Stage 7 855 0 2004-02-02
Dishwashers In Rentals? 7 824 0 2004-02-01
Capital Gain Taxes 4 840 0 2004-02-29
ANYONE Been Hit With Dealer Status? 2 716 0 2004-02-29
1031 Possible? 7 788 0 2004-02-27
Capital Gains Avoidance 11 964 0 2004-02-27
What Is A 593 Tax Mean 1 733 0 2004-02-27
First Time Home Buyer Do I Pay Tax 1 545 0 2004-02-27
Splitting Excess Land And Residence/ Tax Consequenses 2 641 0 2004-02-26
Tax Implications Of S-corp Vs. LLC 8 1272 0 2004-02-25
What % Is Capital Gain Tax 4 845 0 2004-02-25
Effect Death Has On Rental Property Cost-basis 3 692 0 2004-02-25
Passive Losses Can Only Be Deducted From Passive Income 3 760 0 2004-02-25
Taxes From Sale / Buyer With No Money Down 1 590 0 2004-02-24
Real Estate Professional Status? 1 715 0 2004-02-24
CPA Says No Interest Deduction 38 3635 0 2004-02-24
Rental Capitol Gains 3 809 0 2004-02-24
Any Ways Of Getting Around Capital Gains/Income Tax? 2 642 0 2004-02-23
My "primary-1031-primary" Story 3 775 0 2004-02-22
Capital Gains Taxes? 17 2340 0 2004-02-22
Selling Land To A Related Entity That Will Develop It? 0 795 0 2004-02-22
Question On Capital Gains Rates After Transfer To Trust/LLC 3 1052 0 2004-02-20
simultaneous/ double close tax implications???? 12 1222 0 2004-02-19
Partnership To Partner 4 610 0 2004-02-18
LLC Treated As Ab S Or C Corp????? 15 1705 0 2004-02-18
Sch C Vs. Sch E 0 758 0 2004-02-17
CG Taxes On Investment Property 3 595 0 2004-02-17
Contract For Deed 1 737 0 2004-02-17
Capital Gains - Once In A Life Time / Age Limit? 5 737 0 2004-02-16
~ Schedule E Averages~ 4 794 0 2004-02-16
New Furnace 6 792 0 2004-02-15
Is This Allowed? 7 1310 0 2004-02-15
Tax Deduction On A Line Of Credit 2 734 0 2004-02-15
Saving On Capital Gains Taxes 2 646 0 2004-02-14
Deduction Of Assessments 2 572 0 2004-02-14
Depreciation!! 2 798 0 2004-02-13
Rehab Profits Vs. Stock Market Losses 7 1109 0 2004-02-12
Can I Rent Space To My Homebased Business? What Percent? 3 819 0 2004-02-12
Inherited Property And Taxable Gains 1 667 0 2004-02-12
Long/short Capitol Gains Clarification. 1 773 0 2004-02-12
Capital Gains Question 2 689 0 2004-02-12
S Corp Loss Passthrough 2 836 0 2004-02-12
TurboTax For Mac Question 6 696 0 2004-02-12
Form 1065 Not Necessary? 4 573 0 2004-02-11
Don't Know Nothing 'bout No Taxes 0 596 0 2004-02-10
Condo Conversion Tax Implications 0 942 0 2004-02-10
Home Office Deduction 0 635 0 2004-02-10
Can I Deduct Interest Paid If..............> 2 917 0 2004-02-10
Interest Deduction For Rental Property? 1 710 0 2004-02-10
Homeowner's Tax Deductible? 3 820 0 2004-02-10
Long V. Short Term Cap Gains In Calif. 6 654 0 2004-02-10
Low Income Housing Tax Credit!! 2 747 0 2004-02-09
Self-Directed IRA's 15 2384 0 2004-02-09
Help To Avoid Capital Gains? 1 824 0 2004-02-09
Are Property Search Expenses Deductible 16 1884 0 2004-02-09
Owner Financing & Taxes 5 836 0 2004-02-08
Simple IRA/SEP Question 1 723 0 2004-02-07
Sub2 Interest IS Deductible 7 669 0 2004-02-06
Tax Right Off On Failed Investment 1 1012 0 2004-02-05
Capital Expenses 1 741 0 2004-02-04
Tax Question 5 894 0 2004-02-03
Trade To Avoid Capitol Gains? 3 835 0 2004-02-03
Schedule C Vs Schedule E For Vacation Rental Property 1 938 0 2004-02-03
Does Voter Regis Determine Primary Residence? 2 624 0 2004-02-02
Tax WRITEOFF On Rental Home 2 851 0 2004-02-02
New Corp - Tax Year 0 604 0 2004-02-02
Taxes On Referral Fees 2 754 0 2004-02-02
Attracting Investors 2 869 0 2004-02-29
SECOND Mortgage 1 877 0 2004-02-29
Heloc 2 921 0 2004-02-27
BUying The Note In Preforelosure?? 2 748 0 2004-02-27
100% LTV Financing 9 1226 0 2004-02-27
Anyone Use Any Web Sources For 100% Mortgages? 5 1033 0 2004-02-26
Are Wraps Risky? 2 673 0 2004-02-25
Canadian Looking To Help American Buyers 8 784 0 2004-02-25
Owner Note For DP/40K, I HELOC & Pay In 1 Week? 1 615 0 2004-02-25
Heloc For Profit 10 1055 0 2004-02-24
What Does D/E Mean? 3 790 0 2004-02-24
Moving 1 701 0 2004-02-24
World Lending Group? 13 1940 0 2004-02-22
Going Rate For Pre-approval? 22 2055 0 2004-02-22
I Think This Is Mortgage Fraud 5 850 0 2004-02-21
Licensing 2 667 0 2004-02-21
NOtes, John Behle 4 820 0 2004-02-20
36k Non-performing Note For 6k 6 717 0 2004-02-20
Where Can I Market? 2 643 0 2004-02-20
Creating A Note 2 707 0 2004-02-20
Creative Financing 1 613 0 2004-02-20
AM I CRAZY ?????to Take Back A Second Mort.. 28 1922 0 2004-02-20
Newbie Question....sorry 1 591 0 2004-02-20
Hard Money Lenders? 4 945 0 2004-02-20
Option ARM? Other Solutions? 2 666 0 2004-02-18
Groups Area? 0 553 0 2004-02-18
Flip Financing-title Seasoning Problems From Buyer 's Lender 7 1111 0 2004-02-16
Investors Tool 1 1022 0 2004-02-16
Owner Carry-back: AITD Or "Subject To" 4 1024 0 2004-02-13
Buying Mortgage Notes Directly From Banks On Properties They Are Foreclosing On 1 898 0 2004-02-12
Hard Money Lenders 1 684 0 2004-02-12
Help With Creative Financing In Sacramento. 7 829 0